createdAt,value
2019-05-14T00:00:42.190Z,13.58
2019-05-14T00:03:11.547Z,13.57
2019-05-14T00:05:42.462Z,13.61
2019-05-14T00:08:11.986Z,13.67
2019-05-14T00:10:41.355Z,13.50
2019-05-14T00:13:12.047Z,13.49
2019-05-14T00:15:41.604Z,13.59
2019-05-14T00:18:11.768Z,13.56
2019-05-14T00:20:41.934Z,13.57
2019-05-14T00:23:11.904Z,13.54
2019-05-14T00:25:41.974Z,13.59
2019-05-14T00:28:11.825Z,13.63
2019-05-14T00:30:42.290Z,13.68
2019-05-14T00:33:11.777Z,13.75
2019-05-14T00:35:41.425Z,13.90
2019-05-14T00:38:11.878Z,13.87
2019-05-14T00:40:41.974Z,13.94
2019-05-14T00:43:11.511Z,13.94
2019-05-14T00:45:41.798Z,13.98
2019-05-14T00:48:12.905Z,14.02
2019-05-14T00:50:42.570Z,14.11
2019-05-14T00:53:12.028Z,13.96
2019-05-14T00:55:42.113Z,14.06
2019-05-14T00:58:11.542Z,14.02
2019-05-14T01:00:41.809Z,13.92
2019-05-14T01:03:11.348Z,13.95
2019-05-14T01:05:41.402Z,13.85
2019-05-14T01:08:12.037Z,13.76
2019-05-14T01:10:41.875Z,13.90
2019-05-14T01:13:11.347Z,13.82
2019-05-14T01:15:41.466Z,13.92
2019-05-14T01:18:11.445Z,13.80
2019-05-14T01:20:41.292Z,13.85
2019-05-14T01:23:11.503Z,13.93
2019-05-14T01:25:42.235Z,13.77
2019-05-14T01:28:11.722Z,13.75
2019-05-14T01:30:41.426Z,13.70
2019-05-14T01:33:11.838Z,13.59
2019-05-14T01:35:42.040Z,13.56
2019-05-14T01:38:11.652Z,13.54
2019-05-14T01:40:41.997Z,13.72
2019-05-14T01:43:11.686Z,13.70
2019-05-14T01:45:41.698Z,13.65
2019-05-14T01:48:11.778Z,13.65
2019-05-14T01:50:41.478Z,13.46
2019-05-14T01:53:11.502Z,13.47
2019-05-14T01:55:41.593Z,13.57
2019-05-14T01:58:11.616Z,13.49
2019-05-14T02:00:41.617Z,13.59
2019-05-14T02:03:12.139Z,13.55
2019-05-14T02:05:41.770Z,13.59
2019-05-14T02:08:12.161Z,13.46
2019-05-14T02:10:42.038Z,13.47
2019-05-14T02:13:12.341Z,13.34
2019-05-14T02:15:43.056Z,13.29
2019-05-14T02:18:12.599Z,13.38
2019-05-14T02:20:42.372Z,13.44
2019-05-14T02:23:12.061Z,13.40
2019-05-14T02:25:41.444Z,13.42
2019-05-14T02:28:11.560Z,13.27
2019-05-14T02:30:52.678Z,13.21
2019-05-14T02:33:12.251Z,13.26
2019-05-14T02:35:41.617Z,13.23
2019-05-14T02:38:10.974Z,13.38
2019-05-14T02:40:40.679Z,13.36
2019-05-14T02:43:10.084Z,13.33
2019-05-14T02:45:58.628Z,13.17
2019-05-14T02:48:10.942Z,13.20
2019-05-14T02:50:40.319Z,13.34
2019-05-14T02:53:10.440Z,13.26
2019-05-14T02:55:40.101Z,13.21
2019-05-14T02:58:10.127Z,13.18
2019-05-14T03:00:40.703Z,13.11
2019-05-14T03:03:10.444Z,13.12
2019-05-14T03:05:40.252Z,13.19
2019-05-14T03:08:10.114Z,13.25
2019-05-14T03:10:40.238Z,13.23
2019-05-14T03:13:09.879Z,13.19
2019-05-14T03:15:39.369Z,13.14
2019-05-14T03:18:09.365Z,13.21
2019-05-14T03:20:39.301Z,13.21
2019-05-14T03:23:15.662Z,13.25
2019-05-14T03:25:40.199Z,13.25
2019-05-14T03:28:09.616Z,13.35
2019-05-14T03:30:42.279Z,13.26
2019-05-14T03:33:13.345Z,13.30
2019-05-14T03:35:49.491Z,13.20
2019-05-14T03:38:12.303Z,13.33
2019-05-14T03:40:41.693Z,13.48
2019-05-14T03:43:11.141Z,13.46
2019-05-14T03:45:40.624Z,13.51
2019-05-14T03:48:10.581Z,13.71
2019-05-14T03:50:40.217Z,13.75
2019-05-14T03:53:10.241Z,13.75
2019-05-14T03:55:40.545Z,13.74
2019-05-14T03:58:10.098Z,13.74
2019-05-14T04:00:51.605Z,13.65
2019-05-14T04:03:23.557Z,13.79
2019-05-14T04:05:54.003Z,13.76
2019-05-14T04:08:29.367Z,13.82
2019-05-14T04:11:00.635Z,13.88
2019-05-14T04:13:33.700Z,13.94
2019-05-14T04:16:03.814Z,13.97
2019-05-14T04:18:35.509Z,13.95
2019-05-14T04:21:05.843Z,14.12
2019-05-14T04:23:51.331Z,14.07
2019-05-14T04:26:21.899Z,14.19
2019-05-14T04:28:52.068Z,14.23
2019-05-14T04:31:21.534Z,14.22
2019-05-14T04:33:51.679Z,14.24
2019-05-14T04:36:21.037Z,14.35
2019-05-14T04:38:54.865Z,14.36
2019-05-14T04:41:21.487Z,14.39
2019-05-14T04:43:50.858Z,14.30
2019-05-14T04:46:20.495Z,14.25
2019-05-14T04:48:51.171Z,14.09
2019-05-14T04:51:20.971Z,14.14
2019-05-14T04:53:50.667Z,14.27
2019-05-14T04:56:20.256Z,14.35
2019-05-14T04:58:50.455Z,14.35
2019-05-14T05:01:21.001Z,14.41
2019-05-14T05:03:50.985Z,14.50
2019-05-14T05:06:20.546Z,14.48
2019-05-14T05:08:50.315Z,14.45
2019-05-14T05:11:21.423Z,14.45
2019-05-14T05:13:51.196Z,14.53
2019-05-14T05:16:20.668Z,14.55
2019-05-14T05:18:50.078Z,14.58
2019-05-14T05:21:19.583Z,14.62
2019-05-14T05:23:49.467Z,14.72
2019-05-14T05:26:19.049Z,14.75
2019-05-14T05:29:03.004Z,14.66
2019-05-14T05:31:19.568Z,14.60
2019-05-14T05:33:49.260Z,14.64
2019-05-14T05:36:18.812Z,14.51
2019-05-14T05:38:49.157Z,14.67
2019-05-14T05:41:19.328Z,14.66
2019-05-14T05:43:48.856Z,14.80
2019-05-14T05:46:19.202Z,14.95
2019-05-14T05:48:48.779Z,14.80
2019-05-14T05:51:18.683Z,14.54
2019-05-14T05:53:48.694Z,14.41
2019-05-14T05:56:18.822Z,14.41
2019-05-14T05:58:49.088Z,14.25
2019-05-14T06:01:19.623Z,14.34
2019-05-14T06:03:49.589Z,14.46
2019-05-14T06:06:19.434Z,14.54
2019-05-14T06:08:49.600Z,14.46
2019-05-14T06:11:19.552Z,14.17
2019-05-14T06:13:49.214Z,14.14
2019-05-14T06:16:18.899Z,13.88
2019-05-14T06:18:48.790Z,14.11
2019-05-14T06:21:19.334Z,14.08
2019-05-14T06:23:49.680Z,14.00
2019-05-14T06:26:19.622Z,14.25
2019-05-14T06:28:49.827Z,14.38
2019-05-14T06:31:19.664Z,14.30
2019-05-14T06:33:49.298Z,14.29
2019-05-14T06:36:19.662Z,14.50
2019-05-14T06:38:49.916Z,14.71
2019-05-14T06:41:19.543Z,14.83
2019-05-14T06:43:49.086Z,14.81
2019-05-14T06:46:19.264Z,14.80
2019-05-14T06:48:49.124Z,14.52
2019-05-14T06:51:20.005Z,14.24
2019-05-14T06:53:50.207Z,14.16
2019-05-14T06:56:21.693Z,14.07
2019-05-14T06:58:51.168Z,13.93
2019-05-14T07:01:20.592Z,14.01
2019-05-14T07:03:49.982Z,13.72
2019-05-14T07:06:19.352Z,13.81
2019-05-14T07:08:52.436Z,13.75
2019-05-14T07:11:19.972Z,13.72
2019-05-14T07:13:49.527Z,13.80
2019-05-14T07:16:19.844Z,13.66
2019-05-14T07:18:53.715Z,13.85
2019-05-14T07:21:20.602Z,13.90
2019-05-14T07:23:49.960Z,13.75
2019-05-14T07:26:19.668Z,13.77
2019-05-14T07:28:49.244Z,13.85
2019-05-14T07:31:18.909Z,13.97
2019-05-14T07:33:49.290Z,14.23
2019-05-14T07:36:19.343Z,14.32
2019-05-14T07:38:49.325Z,14.38
2019-05-14T07:41:19.468Z,14.55
2019-05-14T07:43:49.101Z,14.63
2019-05-14T07:46:19.332Z,14.82
2019-05-14T07:49:03.947Z,14.84
2019-05-14T07:51:19.917Z,14.72
2019-05-14T07:53:49.340Z,14.37
2019-05-14T07:56:19.024Z,14.12
2019-05-14T07:58:49.230Z,14.19
2019-05-14T08:01:19.026Z,14.19
2019-05-14T08:03:49.029Z,14.18
2019-05-14T08:06:19.126Z,14.31
2019-05-14T08:08:49.457Z,14.18
2019-05-14T08:11:19.400Z,14.03
2019-05-14T08:13:49.482Z,14.28
2019-05-14T08:16:19.128Z,14.40
2019-05-14T08:18:48.990Z,14.18
2019-05-14T08:21:19.295Z,13.99
2019-05-14T08:23:49.162Z,14.01
2019-05-14T08:26:19.310Z,14.02
2019-05-14T08:28:49.155Z,14.13
2019-05-14T08:31:18.939Z,14.21
2019-05-14T08:33:49.126Z,14.70
2019-05-14T08:36:18.812Z,15.08
2019-05-14T08:38:50.057Z,15.72
2019-05-14T08:41:19.965Z,15.86
2019-05-14T08:43:49.704Z,15.91
2019-05-14T08:46:19.528Z,15.33
2019-05-14T08:48:49.830Z,15.08
2019-05-14T08:51:19.339Z,15.17
2019-05-14T08:53:50.351Z,15.35
2019-05-14T08:56:20.059Z,15.53
2019-05-14T08:58:49.723Z,15.63
2019-05-14T09:01:19.810Z,15.61
2019-05-14T09:03:49.716Z,16.22
2019-05-14T09:06:19.506Z,16.73
2019-05-14T09:08:49.763Z,16.98
2019-05-14T09:11:24.446Z,17.17
2019-05-14T09:13:50.463Z,17.16
2019-05-14T09:16:19.835Z,16.76
2019-05-14T09:18:49.453Z,17.09
2019-05-14T09:21:20.440Z,17.10
2019-05-14T09:23:50.075Z,16.95
2019-05-14T09:26:19.494Z,16.83
2019-05-14T09:28:48.914Z,16.88
2019-05-14T09:31:19.789Z,16.75
2019-05-14T09:33:49.760Z,16.51
2019-05-14T09:36:23.566Z,17.06
2019-05-14T09:38:50.421Z,16.92
2019-05-14T09:41:20.131Z,17.26
2019-05-14T09:43:49.517Z,18.07
2019-05-14T09:46:18.900Z,18.51
2019-05-14T09:48:48.828Z,18.53
2019-05-14T09:51:18.700Z,18.53
2019-05-14T09:53:49.038Z,18.68
2019-05-14T09:56:19.308Z,18.87
2019-05-14T09:58:49.557Z,18.86
2019-05-14T10:01:19.682Z,19.43
2019-05-14T10:03:49.868Z,19.07
2019-05-14T10:06:20.778Z,18.89
2019-05-14T10:08:50.632Z,19.40
2019-05-14T10:11:19.963Z,19.68
2019-05-14T10:13:49.497Z,19.61
2019-05-14T10:16:19.220Z,19.31
2019-05-14T10:18:52.396Z,19.12
2019-05-14T10:21:20.084Z,18.40
2019-05-14T10:23:49.574Z,18.54
2019-05-14T10:26:19.240Z,18.40
2019-05-14T10:28:48.807Z,18.55
2019-05-14T10:31:18.679Z,18.77
2019-05-14T10:33:48.634Z,18.95
2019-05-14T10:36:19.087Z,19.28
2019-05-14T10:38:49.041Z,19.39
2019-05-14T10:41:18.698Z,20.54
2019-05-14T10:43:49.750Z,19.89
2019-05-14T10:46:19.559Z,19.48
2019-05-14T10:48:49.037Z,20.25
2019-05-14T10:51:18.440Z,20.28
2019-05-14T10:53:48.876Z,21.17
2019-05-14T10:56:21.646Z,20.62
2019-05-14T10:58:51.114Z,20.23
2019-05-14T11:01:22.655Z,20.02
2019-05-14T11:03:51.718Z,19.64
2019-05-14T11:06:21.139Z,19.46
2019-05-14T11:08:50.518Z,19.46
2019-05-14T11:11:19.998Z,19.06
2019-05-14T11:13:49.332Z,19.79
2019-05-14T11:16:19.210Z,19.94
2019-05-14T11:18:49.704Z,19.34
2019-05-14T11:21:25.966Z,19.01
2019-05-14T11:23:50.634Z,18.84
2019-05-14T11:26:20.132Z,18.60
2019-05-14T11:28:49.603Z,18.57
2019-05-14T11:31:19.475Z,19.05
2019-05-14T11:33:49.804Z,19.05
2019-05-14T11:36:19.577Z,18.86
2019-05-14T11:38:50.792Z,18.88
2019-05-14T11:41:20.550Z,18.88
2019-05-14T11:43:50.005Z,18.62
2019-05-14T11:46:29.734Z,18.26
2019-05-14T11:48:50.615Z,18.26
2019-05-14T11:51:45.806Z,18.13
2019-05-14T11:53:51.166Z,17.94
2019-05-14T11:56:20.689Z,17.93
2019-05-14T11:58:50.052Z,17.83
2019-05-14T12:01:19.446Z,17.76
2019-05-14T12:03:50.313Z,17.74
2019-05-14T12:06:20.057Z,17.62
2019-05-14T12:08:49.437Z,17.49
2019-05-14T12:11:19.601Z,17.39
2019-05-14T12:13:49.243Z,17.36
2019-05-14T12:16:18.632Z,17.29
2019-05-14T12:18:48.495Z,17.37
2019-05-14T12:21:17.942Z,17.28
2019-05-14T12:23:47.403Z,17.46
2019-05-14T12:26:19.071Z,17.46
2019-05-14T12:28:49.387Z,17.54
2019-05-14T12:31:19.035Z,17.73
2019-05-14T12:33:48.951Z,17.76
2019-05-14T12:36:19.264Z,17.71
2019-05-14T12:38:49.021Z,17.99
2019-05-14T12:41:19.349Z,17.82
2019-05-14T12:43:49.114Z,17.68
2019-05-14T12:46:20.147Z,17.58
2019-05-14T12:48:49.820Z,17.72
2019-05-14T12:51:19.239Z,17.66
2019-05-14T12:53:48.971Z,17.58
2019-05-14T12:56:19.025Z,17.74
2019-05-14T12:58:49.083Z,17.71
2019-05-14T13:01:19.997Z,17.57
2019-05-14T13:03:49.702Z,17.80
2019-05-14T13:06:19.361Z,17.92
2019-05-14T13:08:49.301Z,18.00
2019-05-14T13:11:18.949Z,17.96
2019-05-14T13:13:49.079Z,17.91
2019-05-14T13:16:19.540Z,17.93
2019-05-14T13:18:50.138Z,17.81
2019-05-14T13:21:19.948Z,17.76
2019-05-14T13:23:49.621Z,17.68
2019-05-14T13:26:19.256Z,17.88
2019-05-14T13:28:50.817Z,17.83
2019-05-14T13:31:22.861Z,17.91
2019-05-14T13:33:52.234Z,17.94
2019-05-14T13:36:21.605Z,17.98
2019-05-14T13:38:51.080Z,17.90
2019-05-14T13:41:20.519Z,17.72
2019-05-14T13:43:50.635Z,17.74
2019-05-14T13:46:20.156Z,17.83
2019-05-14T13:48:50.105Z,17.95
2019-05-14T13:51:19.807Z,17.96
2019-05-14T13:53:49.895Z,18.07
2019-05-14T13:56:19.469Z,18.21
2019-05-14T13:58:49.225Z,18.20
2019-05-14T14:01:19.412Z,18.12
2019-05-14T14:04:02.499Z,18.02
2019-05-14T14:06:20.965Z,17.87
2019-05-14T14:08:52.364Z,17.88
2019-05-14T14:11:21.736Z,18.02
2019-05-14T14:13:51.100Z,18.04
2019-05-14T14:16:20.532Z,17.95
2019-05-14T14:18:50.416Z,17.98
2019-05-14T14:21:20.125Z,18.01
2019-05-14T14:23:49.876Z,18.09
2019-05-14T14:26:19.542Z,18.00
2019-05-14T14:28:49.659Z,17.98
2019-05-14T14:31:19.227Z,18.19
2019-05-14T14:33:48.994Z,18.51
2019-05-14T14:36:19.968Z,18.71
2019-05-14T14:38:50.014Z,18.62
2019-05-14T14:41:19.757Z,18.51
2019-05-14T14:43:53.218Z,18.31
2019-05-14T14:46:20.595Z,18.28
2019-05-14T14:48:50.154Z,18.21
2019-05-14T14:51:19.684Z,18.50
2019-05-14T14:53:59.243Z,18.52
2019-05-14T14:56:20.174Z,18.42
2019-05-14T14:58:49.635Z,18.49
2019-05-14T15:01:19.881Z,18.43
2019-05-14T15:03:50.410Z,18.45
2019-05-14T15:06:20.464Z,18.47
2019-05-14T15:08:50.043Z,18.38
2019-05-14T15:11:19.458Z,18.38
2019-05-14T15:13:48.856Z,18.33
2019-05-14T15:16:19.946Z,18.17
2019-05-14T15:18:49.856Z,18.02
2019-05-14T15:21:19.633Z,18.19
2019-05-14T15:24:06.142Z,18.09
2019-05-14T15:26:20.121Z,18.06
2019-05-14T15:28:49.782Z,18.17
2019-05-14T15:31:19.398Z,18.18
2019-05-14T15:33:51.002Z,18.20
2019-05-14T15:36:19.947Z,18.13
2019-05-14T15:38:49.369Z,18.01
2019-05-14T15:41:20.121Z,18.07
2019-05-14T15:43:50.030Z,18.16
2019-05-14T15:46:19.380Z,18.19
2019-05-14T15:48:49.045Z,18.18
2019-05-14T15:51:19.488Z,18.17
2019-05-14T15:54:05.610Z,18.15
2019-05-14T15:56:20.677Z,18.17
2019-05-14T15:58:50.059Z,18.25
2019-05-14T16:01:19.615Z,18.23
2019-05-14T16:03:49.250Z,18.26
2019-05-14T16:06:19.332Z,18.23
2019-05-14T16:08:49.223Z,18.27
2019-05-14T16:11:18.919Z,18.30
2019-05-14T16:13:49.391Z,18.30
2019-05-14T16:16:19.590Z,18.36
2019-05-14T16:18:49.279Z,18.19
2019-05-14T16:21:18.646Z,18.20
2019-05-14T16:23:48.047Z,18.24
2019-05-14T16:26:18.710Z,18.16
2019-05-14T16:28:48.425Z,18.11
2019-05-14T16:31:18.530Z,18.01
2019-05-14T16:33:49.256Z,18.00
2019-05-14T16:36:19.228Z,17.94
2019-05-14T16:38:48.597Z,17.93
2019-05-14T16:41:18.583Z,17.89
2019-05-14T16:43:49.460Z,17.83
2019-05-14T16:46:19.168Z,17.89
2019-05-14T16:48:49.018Z,17.88
2019-05-14T16:51:19.377Z,17.79
2019-05-14T16:53:49.154Z,17.74
2019-05-14T16:56:19.233Z,17.90
2019-05-14T16:58:48.859Z,17.86
2019-05-14T17:01:19.253Z,17.75
2019-05-14T17:03:49.578Z,17.63
2019-05-14T17:06:19.325Z,17.70
2019-05-14T17:08:49.155Z,17.74
2019-05-14T17:11:18.712Z,17.70
2019-05-14T17:13:48.915Z,17.66
2019-05-14T17:16:19.562Z,17.56
2019-05-14T17:18:49.406Z,17.51
2019-05-14T17:21:18.874Z,17.48
2019-05-14T17:23:49.057Z,17.51
2019-05-14T17:26:18.970Z,17.36
2019-05-14T17:28:49.006Z,17.32
2019-05-14T17:31:19.236Z,17.30
2019-05-14T17:33:49.356Z,17.22
2019-05-14T17:36:19.150Z,17.23
2019-05-14T17:38:49.210Z,17.16
2019-05-14T17:41:19.615Z,17.03
2019-05-14T17:43:49.622Z,17.02
2019-05-14T17:46:20.723Z,16.94
2019-05-14T17:48:50.350Z,16.98
2019-05-14T17:51:19.863Z,17.04
2019-05-14T17:53:49.240Z,16.91
2019-05-14T17:56:19.221Z,16.82
2019-05-14T17:58:49.853Z,16.84
2019-05-14T18:01:19.322Z,16.77
2019-05-14T18:03:49.322Z,16.65
2019-05-14T18:06:19.119Z,16.61
2019-05-14T18:08:48.615Z,16.66
2019-05-14T18:11:19.186Z,16.64
2019-05-14T18:13:48.920Z,16.61
2019-05-14T18:16:19.142Z,16.52
2019-05-14T18:18:49.369Z,16.48
2019-05-14T18:21:19.264Z,16.49
2019-05-14T18:23:49.311Z,16.50
2019-05-14T18:26:19.079Z,16.45
2019-05-14T18:28:48.626Z,16.35
2019-05-14T18:31:20.227Z,16.31
2019-05-14T18:33:49.550Z,16.38
2019-05-14T18:36:19.271Z,16.39
2019-05-14T18:38:49.528Z,16.41
2019-05-14T18:41:19.217Z,16.31
2019-05-14T18:43:48.908Z,16.35
2019-05-14T18:46:19.245Z,16.28
2019-05-14T18:48:49.045Z,16.15
2019-05-14T18:51:19.692Z,16.19
2019-05-14T18:53:49.515Z,16.14
2019-05-14T18:56:24.305Z,16.08
2019-05-14T18:58:51.707Z,16.02
2019-05-14T19:01:21.169Z,15.89
2019-05-14T19:03:50.642Z,15.89
2019-05-14T19:06:20.112Z,15.86
2019-05-14T19:08:49.543Z,15.81
2019-05-14T19:11:19.873Z,15.79
2019-05-14T19:13:49.287Z,15.73
2019-05-14T19:16:18.732Z,15.67
2019-05-14T19:18:48.888Z,15.64
2019-05-14T19:21:18.438Z,15.67
2019-05-14T19:23:49.128Z,15.54
2019-05-14T19:26:33.099Z,15.42
2019-05-14T19:28:51.528Z,15.36
2019-05-14T19:31:21.035Z,15.31
2019-05-14T19:33:50.554Z,15.32
2019-05-14T19:36:19.948Z,15.29
2019-05-14T19:38:49.385Z,15.38
2019-05-14T19:41:22.565Z,15.34
2019-05-14T19:43:50.043Z,15.24
2019-05-14T19:46:19.473Z,15.13
2019-05-14T19:48:48.928Z,15.20
2019-05-14T19:51:18.885Z,15.08
2019-05-14T19:53:49.518Z,15.09
2019-05-14T19:56:19.470Z,15.08
2019-05-14T19:58:48.863Z,15.07
2019-05-14T20:01:19.368Z,15.05
2019-05-14T20:03:49.260Z,15.00
2019-05-14T20:06:18.889Z,14.88
2019-05-14T20:08:48.414Z,14.83
2019-05-14T20:11:19.252Z,14.80
2019-05-14T20:13:48.812Z,14.80
2019-05-14T20:16:18.563Z,14.87
2019-05-14T20:18:48.757Z,14.90
2019-05-14T20:21:18.420Z,14.88
2019-05-14T20:23:48.190Z,14.87
2019-05-14T20:26:17.722Z,14.79
2019-05-14T20:28:48.362Z,14.78
2019-05-14T20:31:18.198Z,14.77
2019-05-14T20:33:48.558Z,14.80
2019-05-14T20:36:18.821Z,14.79
2019-05-14T20:38:48.362Z,14.83
2019-05-14T20:41:18.113Z,14.84
2019-05-14T20:43:47.978Z,14.85
2019-05-14T20:46:18.526Z,14.80
2019-05-14T20:48:48.310Z,14.84
2019-05-14T20:51:18.524Z,14.89
2019-05-14T20:53:48.812Z,14.82
2019-05-14T20:56:18.951Z,14.83
2019-05-14T20:58:48.547Z,14.74
2019-05-14T21:01:18.536Z,14.76
2019-05-14T21:03:48.395Z,14.78
2019-05-14T21:06:18.835Z,14.74
2019-05-14T21:08:49.034Z,14.61
2019-05-14T21:11:19.052Z,14.58
2019-05-14T21:13:50.288Z,14.58
2019-05-14T21:16:19.808Z,14.53
2019-05-14T21:18:49.164Z,14.65
2019-05-14T21:21:18.741Z,14.61
2019-05-14T21:23:49.055Z,14.70
2019-05-14T21:26:19.369Z,14.74
2019-05-14T21:28:49.069Z,14.80
2019-05-14T21:31:18.499Z,14.86
2019-05-14T21:33:48.930Z,14.87
2019-05-14T21:36:19.275Z,14.92
2019-05-14T21:38:49.303Z,14.82
2019-05-14T21:41:20.528Z,14.80
2019-05-14T21:43:49.710Z,14.84
2019-05-14T21:46:19.537Z,14.94
2019-05-14T21:48:48.946Z,15.10
2019-05-14T21:51:18.297Z,14.96
2019-05-14T21:53:48.253Z,14.98
2019-05-14T21:56:21.517Z,15.08
2019-05-14T21:58:48.983Z,15.15
2019-05-14T22:01:18.949Z,15.05
2019-05-14T22:03:48.671Z,15.09
2019-05-14T22:06:18.391Z,15.08
2019-05-14T22:08:48.787Z,15.19
2019-05-14T22:11:18.961Z,15.27
2019-05-14T22:13:49.605Z,15.30
2019-05-14T22:16:19.177Z,15.32
2019-05-14T22:18:48.617Z,15.31
2019-05-14T22:21:18.488Z,15.45
2019-05-14T22:23:48.320Z,15.36
2019-05-14T22:26:18.604Z,15.44
2019-05-14T22:28:48.236Z,15.40
2019-05-14T22:31:19.266Z,15.37
2019-05-14T22:33:48.823Z,15.54
2019-05-14T22:36:21.457Z,15.65
2019-05-14T22:38:49.314Z,15.57
2019-05-14T22:41:18.690Z,15.72
2019-05-14T22:43:48.764Z,15.76
2019-05-14T22:46:19.231Z,15.78
2019-05-14T22:48:51.491Z,15.84
2019-05-14T22:51:19.772Z,15.86
2019-05-14T22:53:49.542Z,15.89
2019-05-14T22:56:19.050Z,15.85
2019-05-14T22:58:48.969Z,15.80
2019-05-14T23:01:18.689Z,15.77
2019-05-14T23:03:49.048Z,15.75
2019-05-14T23:06:19.050Z,15.79
2019-05-14T23:08:48.919Z,15.76
2019-05-14T23:11:19.770Z,15.75
2019-05-14T23:13:49.592Z,15.76
2019-05-14T23:16:31.015Z,15.80
2019-05-14T23:18:50.192Z,15.80
2019-05-14T23:21:19.577Z,15.77
2019-05-14T23:23:48.951Z,15.79
2019-05-14T23:26:19.206Z,15.84
2019-05-14T23:28:49.255Z,15.88
2019-05-14T23:31:18.853Z,15.87
2019-05-14T23:33:49.006Z,15.92
2019-05-14T23:36:18.578Z,15.94
2019-05-14T23:38:49.229Z,15.92
2019-05-14T23:41:19.425Z,15.92
2019-05-14T23:43:48.817Z,15.84
2019-05-14T23:46:18.390Z,15.90
2019-05-14T23:48:48.494Z,15.92
2019-05-14T23:51:18.298Z,15.95
2019-05-14T23:53:48.393Z,15.99
2019-05-14T23:56:19.289Z,15.97
2019-05-14T23:58:57.776Z,15.99
